METAR Data

Data at: 1745 UTC 21 Nov 2018

METAR for:KMTP (Montauk Arpt, NY, US)
Text:KMTP 211654Z AUTO 27012G19KT 05/M03 A2999 RMK AO1 SLP154 T00501033
Temperature: 5.0°C ( 41°F)
Dewpoint: -3.3°C ( 26°F) [RH = 55%]
Pressure (altimeter):29.99 inches Hg (1015.7 mb) [Sea level pressure: 1015.4 mb]
Winds:from the W (270 degrees) at 14 MPH (12 knots; 6.2 m/s) gusting to 22 MPH (19 knots; 9.8 m/s)
QC Flag:automated observation with no human augmentation